createdAt,value
2023-05-24T00:01:14.051Z,50.00
2023-05-24T00:06:47.229Z,49.90
2023-05-24T00:12:06.005Z,50.00
2023-05-24T00:17:26.190Z,49.80
2023-05-24T00:23:08.013Z,49.80
2023-05-24T00:28:48.890Z,50.00
2023-05-24T00:34:34.877Z,49.70
2023-05-24T00:45:52.880Z,50.00
2023-05-24T00:51:23.056Z,50.10
2023-05-24T00:56:47.200Z,50.00
2023-05-24T01:02:21.064Z,50.20
2023-05-24T01:08:16.896Z,50.00
2023-05-24T01:13:54.164Z,50.30
2023-05-24T01:19:18.083Z,50.30
2023-05-24T01:24:52.306Z,50.30
2023-05-24T01:30:22.959Z,50.60
2023-05-24T01:35:33.538Z,50.50
2023-05-24T01:40:44.538Z,50.40
2023-05-24T01:46:16.429Z,50.40
2023-05-24T01:51:43.172Z,50.60
2023-05-24T01:57:00.271Z,50.40
2023-05-24T02:02:33.314Z,50.40
2023-05-24T02:08:16.834Z,50.40
2023-05-24T02:14:06.075Z,50.30
2023-05-24T02:19:46.576Z,50.10
2023-05-24T02:25:32.874Z,50.40
2023-05-24T02:31:03.292Z,50.20
2023-05-24T02:36:38.581Z,50.30
2023-05-24T02:42:13.705Z,50.20
2023-05-24T02:47:41.464Z,50.30
2023-05-24T02:53:06.035Z,50.00
2023-05-24T02:58:37.277Z,50.20
2023-05-24T03:04:10.565Z,50.00
2023-05-24T03:09:38.249Z,50.40
2023-05-24T03:14:49.727Z,50.20
2023-05-24T03:20:05.984Z,50.20
2023-05-24T03:25:20.047Z,50.20
2023-05-24T03:30:26.881Z,50.50
2023-05-24T03:35:48.057Z,50.20
2023-05-24T03:40:56.543Z,50.20
2023-05-24T03:46:11.027Z,50.30
2023-05-24T03:51:18.175Z,50.20
2023-05-24T03:56:32.255Z,50.20
2023-05-24T04:01:49.195Z,51.20
2023-05-24T04:07:22.065Z,50.40
2023-05-24T04:13:12.044Z,50.30
2023-05-24T04:18:30.825Z,50.40
2023-05-24T04:24:11.429Z,50.20
2023-05-24T04:29:33.579Z,50.60
2023-05-24T04:34:38.003Z,50.50
2023-05-24T04:39:52.290Z,50.50
2023-05-24T04:45:08.421Z,50.60
2023-05-24T04:50:14.126Z,50.60
2023-05-24T04:55:24.570Z,50.70
2023-05-24T05:00:37.761Z,50.90
2023-05-24T05:05:42.100Z,51.10
2023-05-24T05:10:54.713Z,51.00
2023-05-24T05:16:05.762Z,51.00
2023-05-24T05:21:12.180Z,51.40
2023-05-24T05:32:04.272Z,51.90
2023-05-24T05:37:21.269Z,51.80
2023-05-24T05:42:29.074Z,52.00
2023-05-24T05:47:34.674Z,51.80
2023-05-24T05:52:45.380Z,52.00
2023-05-24T05:57:55.167Z,52.00
2023-05-24T06:03:01.752Z,52.40
2023-05-24T06:08:35.289Z,52.30
2023-05-24T06:14:03.042Z,52.20
2023-05-24T06:19:23.772Z,52.10
2023-05-24T06:24:30.705Z,52.10
2023-05-24T06:29:55.450Z,52.10
2023-05-24T06:35:03.361Z,52.20
2023-05-24T06:40:16.540Z,52.10
2023-05-24T06:51:15.488Z,51.90
2023-05-24T06:56:48.338Z,51.80
2023-05-24T07:02:00.095Z,51.70
2023-05-24T07:07:21.724Z,51.70
2023-05-24T07:12:41.334Z,51.70
2023-05-24T07:17:53.053Z,51.60
2023-05-24T07:23:09.170Z,51.40
2023-05-24T07:28:20.725Z,51.20
2023-05-24T07:33:40.075Z,51.40
2023-05-24T07:38:51.065Z,51.40
2023-05-24T07:44:06.702Z,51.30
2023-05-24T07:49:26.046Z,51.40
2023-05-24T07:54:43.027Z,51.40
2023-05-24T08:00:07.357Z,51.50
2023-05-24T08:05:19.354Z,51.70
2023-05-24T08:10:33.245Z,51.90
2023-05-24T08:15:45.524Z,51.90
2023-05-24T08:21:18.826Z,51.80
2023-05-24T08:26:41.954Z,51.30
2023-05-24T08:32:09.411Z,51.40
2023-05-24T08:37:35.576Z,50.90
2023-05-24T08:43:06.443Z,50.90
2023-05-24T08:54:29.722Z,51.20
2023-05-24T09:00:12.439Z,51.40
2023-05-24T09:05:49.298Z,51.50
2023-05-24T09:11:28.352Z,50.90
2023-05-24T09:28:58.473Z,49.90
2023-05-24T09:34:59.026Z,49.90
2023-05-24T09:40:33.095Z,49.60
2023-05-24T09:45:50.297Z,49.70
2023-05-24T09:51:28.172Z,49.40
2023-05-24T10:03:13.676Z,49.60
2023-05-24T10:15:07.939Z,50.30
2023-05-24T10:20:52.707Z,49.50
2023-05-24T10:26:37.850Z,49.40
2023-05-24T10:43:22.112Z,49.30
2023-05-24T10:54:55.835Z,48.60
2023-05-24T11:11:54.830Z,49.20
2023-05-24T11:17:29.368Z,47.80
2023-05-24T11:23:05.189Z,48.60
2023-05-24T11:59:20.488Z,47.10
2023-05-24T12:05:38.204Z,48.90
2023-05-24T12:11:17.011Z,47.40
2023-05-24T12:16:49.526Z,46.70
2023-05-24T12:23:13.637Z,46.60
2023-05-24T12:34:45.732Z,46.30
2023-05-24T13:05:24.989Z,46.20
2023-05-24T13:10:57.481Z,46.10
2023-05-24T13:22:24.362Z,46.50
2023-05-24T13:28:04.101Z,46.30
2023-05-24T13:33:46.714Z,47.00
2023-05-24T13:39:32.422Z,45.90
2023-05-24T13:45:03.201Z,46.10
2023-05-24T13:50:37.532Z,46.70
2023-05-24T14:26:06.445Z,44.90
2023-05-24T14:32:34.163Z,44.40
2023-05-24T14:38:00.588Z,44.50
2023-05-24T14:50:12.575Z,44.10
2023-05-24T18:57:34.476Z,43.30
2023-05-24T22:41:17.189Z,45.70
2023-05-24T22:53:00.415Z,45.70
2023-05-24T23:28:37.324Z,46.00
2023-05-24T23:51:37.816Z,46.30
